Time;durP1;ratioP1;P1;durP2;ratioP2;P2;SDS_P1;SDS_P2;PMS_P1;PMS_P2;Temp;Humidity;BMP_temperature;BMP_pressure;BME280_temperature;BME280_humidity;BME280_pressure;Samples;Min_cycle;Max_cycle;Signal;HPM_P1;HPM_P2
2024/01/18 00:01:52;;;;;;;9.73;6.10;;;7.60;99.90;;;;;;5113663;28;20025;-78
2024/01/18 00:04:18;;;;;;;12.30;6.88;;;7.30;99.90;;;;;;5097519;28;20157;-79
2024/01/18 00:06:43;;;;;;;10.38;6.10;;;7.20;99.90;;;;;;5096669;28;20011;-80
2024/01/18 00:09:09;;;;;;;9.10;5.85;;;7.00;99.90;;;;;;5113978;28;20028;-80
2024/01/18 00:11:35;;;;;;;9.25;5.68;;;6.90;99.90;;;;;;5086536;28;20037;-81
2024/01/18 00:14:01;;;;;;;8.75;4.82;;;6.70;99.90;;;;;;5107346;28;20016;-80
2024/01/18 00:16:26;;;;;;;8.70;4.55;;;6.60;99.90;;;;;;5111985;28;20016;-81
2024/01/18 00:18:52;;;;;;;5.57;3.45;;;6.40;99.90;;;;;;5113271;28;20061;-79
2024/01/18 00:21:18;;;;;;;5.15;3.15;;;6.40;99.90;;;;;;5105712;28;20069;-80
2024/01/18 00:23:43;;;;;;;5.28;3.28;;;6.30;99.90;;;;;;5104911;28;20028;-79
2024/01/18 00:26:09;;;;;;;5.93;3.35;;;6.10;99.90;;;;;;5098848;28;20027;-79
2024/01/18 00:28:35;;;;;;;5.38;3.28;;;6.00;99.90;;;;;;5111496;28;20028;-79
2024/01/18 00:31:00;;;;;;;5.85;3.88;;;5.90;99.90;;;;;;5098876;28;20053;-78
2024/01/18 00:33:26;;;;;;;5.85;3.75;;;5.80;99.90;;;;;;5104678;28;20137;-82
2024/01/18 00:35:51;;;;;;;6.43;3.87;;;5.80;99.90;;;;;;5114750;28;20055;-80
2024/01/18 00:38:17;;;;;;;8.20;4.60;;;5.60;99.90;;;;;;5116512;28;20364;-85
2024/01/18 00:40:43;;;;;;;10.00;5.53;;;5.50;99.90;;;;;;5083681;28;20023;-76
2024/01/18 00:43:09;;;;;;;10.10;5.13;;;5.50;99.90;;;;;;5096536;28;20043;-78
2024/01/18 00:45:35;;;;;;;9.27;5.63;;;5.40;99.90;;;;;;5096353;28;20095;-76
2024/01/18 00:48:01;;;;;;;9.83;5.70;;;5.40;99.90;;;;;;5078876;28;20062;-77
2024/01/18 00:50:26;;;;;;;9.67;5.90;;;5.30;99.90;;;;;;5078270;28;20511;-77
2024/01/18 00:52:52;;;;;;;11.80;6.70;;;5.20;99.90;;;;;;5078564;28;20118;-77
2024/01/18 00:55:17;;;;;;;11.33;6.37;;;5.20;99.90;;;;;;5078143;28;20074;-88
2024/01/18 00:57:43;;;;;;;11.80;6.47;;;5.10;99.90;;;;;;5097075;28;20028;-77
2024/01/18 01:00:09;;;;;;;13.37;6.90;;;5.00;99.90;;;;;;5096577;28;20453;-77
2024/01/18 01:02:34;;;;;;;12.30;6.53;;;5.00;99.90;;;;;;5096063;28;20089;-77
2024/01/18 01:05:00;;;;;;;9.63;5.57;;;5.00;99.90;;;;;;5088752;28;20059;-77
2024/01/18 01:07:25;;;;;;;10.10;5.80;;;5.00;99.90;;;;;;5098317;28;20030;-77
2024/01/18 01:09:51;;;;;;;9.97;5.53;;;4.90;99.90;;;;;;5098529;28;20035;-77
2024/01/18 01:12:17;;;;;;;9.60;5.30;;;4.90;99.90;;;;;;5098142;28;20069;-77
2024/01/18 01:14:42;;;;;;;10.80;5.67;;;4.90;99.90;;;;;;5116064;28;20016;-77
2024/01/18 01:17:08;;;;;;;6.10;3.70;;;4.80;99.90;;;;;;5098392;28;20460;-77
2024/01/18 01:19:34;;;;;;;7.03;3.70;;;4.80;99.90;;;;;;5116272;28;20059;-77
2024/01/18 01:21:59;;;;;;;6.07;3.40;;;4.70;99.90;;;;;;5098501;28;20440;-77
2024/01/18 01:24:25;;;;;;;4.47;2.70;;;4.60;99.90;;;;;;5097675;28;20352;-77
2024/01/18 01:26:51;;;;;;;3.77;2.40;;;4.60;99.90;;;;;;5098328;28;20019;-76
2024/01/18 01:29:16;;;;;;;3.60;2.57;;;4.60;99.90;;;;;;5116358;28;20114;-76
2024/01/18 01:31:43;;;;;;;4.00;2.40;;;4.50;99.90;;;;;;5097472;28;20023;-76
2024/01/18 01:34:08;;;;;;;2.77;2.00;;;4.50;99.90;;;;;;5097359;28;20027;-76
2024/01/18 01:36:34;;;;;;;4.20;2.63;;;4.50;99.90;;;;;;5097622;28;20019;-77
2024/01/18 01:38:59;;;;;;;3.13;2.27;;;4.30;99.90;;;;;;5116282;28;20058;-76
2024/01/18 01:41:25;;;;;;;3.77;2.43;;;4.30;99.90;;;;;;5096952;28;20529;-77
2024/01/18 01:43:58;;;;;;;3.10;2.00;;;4.30;99.90;;;;;;5116188;28;20023;-76
2024/01/18 01:46:24;;;;;;;4.30;2.33;;;4.30;99.90;;;;;;5097225;28;20026;-77
2024/01/18 01:48:51;;;;;;;4.10;2.90;;;4.30;99.90;;;;;;5097886;28;20027;-77
2024/01/18 01:51:17;;;;;;;4.73;2.47;;;4.30;99.90;;;;;;5116050;28;20024;-77
2024/01/18 01:53:43;;;;;;;3.67;2.40;;;4.40;99.90;;;;;;5115482;28;20025;-77
2024/01/18 01:56:09;;;;;;;4.23;2.50;;;4.30;99.90;;;;;;5097720;28;20019;-77
2024/01/18 01:58:36;;;;;;;3.93;2.37;;;4.30;99.90;;;;;;5097519;28;20031;-77
2024/01/18 02:01:02;;;;;;;4.60;2.43;;;4.30;99.90;;;;;;5097777;28;20019;-77
2024/01/18 02:03:28;;;;;;;3.80;2.50;;;4.30;99.90;;;;;;5096917;28;20490;-78
2024/01/18 02:05:54;;;;;;;3.63;2.67;;;4.20;99.90;;;;;;5115660;28;20529;-77
2024/01/18 02:08:20;;;;;;;2.93;2.30;;;4.10;99.90;;;;;;5097488;28;20027;-77
2024/01/18 02:10:45;;;;;;;2.80;2.40;;;4.10;99.90;;;;;;5096905;28;20359;-77
2024/01/18 02:13:12;;;;;;;2.87;2.27;;;4.10;99.90;;;;;;5097541;28;20452;-77
2024/01/18 02:15:38;;;;;;;4.23;2.60;;;4.10;99.90;;;;;;5096921;28;20020;-77
2024/01/18 02:18:04;;;;;;;3.80;2.80;;;4.10;99.90;;;;;;5097334;28;20027;-77
2024/01/18 02:20:30;;;;;;;3.63;2.83;;;4.00;99.90;;;;;;5114930;28;20019;-77
2024/01/18 02:22:57;;;;;;;4.27;2.90;;;4.00;99.90;;;;;;5115283;28;20024;-77
2024/01/18 02:25:28;;;;;;;4.20;3.10;;;4.00;99.90;;;;;;5115069;28;20012;-91
2024/01/18 02:27:57;;;;;;;4.17;2.90;;;4.00;99.90;;;;;;5115676;28;20027;-77
2024/01/18 02:30:23;;;;;;;3.60;2.70;;;4.00;99.90;;;;;;5115129;28;20143;-88
2024/01/18 02:32:49;;;;;;;3.77;2.70;;;4.00;99.90;;;;;;5096948;28;20027;-77
2024/01/18 02:35:16;;;;;;;2.70;2.27;;;3.90;99.90;;;;;;5096698;28;20368;-77
2024/01/18 02:37:42;;;;;;;3.80;2.67;;;4.00;99.90;;;;;;5114778;28;20024;-77
2024/01/18 02:40:08;;;;;;;6.23;2.90;;;3.90;99.90;;;;;;5115182;28;20103;-77
2024/01/18 02:42:34;;;;;;;4.73;3.23;;;3.90;99.90;;;;;;5096259;28;20047;-77
2024/01/18 02:45:02;;;;;;;4.83;2.87;;;3.80;99.90;;;;;;5096825;28;20161;-77
2024/01/18 02:47:28;;;;;;;4.30;2.97;;;3.80;99.90;;;;;;5096579;28;20376;-77
2024/01/18 02:49:55;;;;;;;5.33;3.17;;;3.80;99.90;;;;;;5096882;28;20023;-77
2024/01/18 02:52:21;;;;;;;3.77;2.60;;;3.80;99.90;;;;;;5096618;28;20023;-77
2024/01/18 02:54:47;;;;;;;5.50;3.20;;;3.70;99.90;;;;;;5114590;28;20043;-77
2024/01/18 02:57:12;;;;;;;5.30;3.10;;;3.70;99.90;;;;;;5096870;28;20411;-77
2024/01/18 02:59:38;;;;;;;4.60;2.90;;;3.70;99.90;;;;;;5095493;28;20023;-77
2024/01/18 03:02:03;;;;;;;4.27;2.80;;;3.70;99.90;;;;;;5096642;28;20432;-77
2024/01/18 03:04:29;;;;;;;4.00;2.80;;;3.70;99.90;;;;;;5096319;28;20069;-78
2024/01/18 03:06:54;;;;;;;4.97;3.10;;;3.70;99.90;;;;;;5114841;28;20019;-77
2024/01/18 03:09:20;;;;;;;6.17;3.20;;;3.70;99.90;;;;;;5096354;28;20027;-77
2024/01/18 03:11:46;;;;;;;5.53;3.70;;;3.70;99.90;;;;;;5095997;28;20084;-78
2024/01/18 03:14:11;;;;;;;6.17;3.80;;;3.70;99.90;;;;;;5096492;28;20405;-77
2024/01/18 03:16:42;;;;;;;6.73;4.07;;;3.70;99.90;;;;;;5114077;28;20027;-77
2024/01/18 03:19:11;;;;;;;5.83;3.73;;;3.70;99.90;;;;;;5096382;28;20024;-77
2024/01/18 03:21:37;;;;;;;6.90;4.37;;;3.60;99.90;;;;;;5095947;28;20016;-78
2024/01/18 03:24:02;;;;;;;7.63;4.77;;;3.60;99.90;;;;;;5096277;28;20026;-77
2024/01/18 03:26:28;;;;;;;5.90;4.33;;;3.60;99.90;;;;;;5095835;28;20480;-78
2024/01/18 03:28:54;;;;;;;7.50;4.30;;;3.60;99.90;;;;;;5095905;28;20020;-78
2024/01/18 03:31:20;;;;;;;7.23;4.27;;;3.60;99.90;;;;;;5096164;28;20023;-78
2024/01/18 03:33:46;;;;;;;7.77;4.63;;;3.60;99.90;;;;;;5095581;28;20022;-78
2024/01/18 03:36:11;;;;;;;7.90;4.63;;;3.60;99.90;;;;;;5114448;28;20027;-78
2024/01/18 03:38:37;;;;;;;8.87;4.30;;;3.50;99.90;;;;;;5095460;28;20427;-78
2024/01/18 03:41:03;;;;;;;7.20;4.40;;;3.60;99.90;;;;;;5095279;28;20096;-77
2024/01/18 03:43:28;;;;;;;7.80;4.73;;;3.50;99.90;;;;;;5113725;28;20024;-78
2024/01/18 03:45:54;;;;;;;5.67;4.17;;;3.60;99.90;;;;;;5095358;28;20022;-77
2024/01/18 03:48:20;;;;;;;7.00;4.23;;;3.60;99.90;;;;;;5095635;28;20019;-77
2024/01/18 03:50:45;;;;;;;7.07;4.60;;;3.50;99.90;;;;;;5095152;28;20475;-77
2024/01/18 03:53:11;;;;;;;6.40;4.10;;;3.50;99.90;;;;;;5095448;28;20031;-77
2024/01/18 03:55:36;;;;;;;6.70;4.50;;;3.50;99.90;;;;;;5113069;28;20091;-78
2024/01/18 03:58:02;;;;;;;6.40;4.33;;;3.50;99.90;;;;;;5113676;28;20028;-77
2024/01/18 04:00:28;;;;;;;5.47;4.03;;;3.50;99.90;;;;;;5095379;28;20032;-87
2024/01/18 04:02:54;;;;;;;7.33;4.30;;;3.50;99.90;;;;;;5113630;28;20470;-77
2024/01/18 04:05:19;;;;;;;7.90;4.60;;;3.40;99.90;;;;;;5095411;28;20020;-77
2024/01/18 04:07:45;;;;;;;7.57;4.67;;;3.30;99.90;;;;;;5112881;28;20053;-77
2024/01/18 04:10:10;;;;;;;7.93;5.40;;;3.30;99.90;;;;;;5112799;28;20062;-77
2024/01/18 04:12:37;;;;;;;8.23;5.23;;;3.30;99.90;;;;;;5094772;28;20114;-78
2024/01/18 04:15:03;;;;;;;8.93;5.60;;;3.30;99.90;;;;;;5113774;28;20165;-77
2024/01/18 04:17:29;;;;;;;9.90;5.53;;;3.30;99.90;;;;;;5095270;28;20055;-77
2024/01/18 04:19:55;;;;;;;10.37;6.13;;;3.30;99.90;;;;;;5113040;28;20058;-78
2024/01/18 04:22:22;;;;;;;9.40;5.60;;;3.30;99.90;;;;;;5113615;28;20103;-77
2024/01/18 04:24:48;;;;;;;9.27;5.67;;;3.20;99.90;;;;;;5094668;28;20452;-77
2024/01/18 04:27:14;;;;;;;8.37;5.37;;;3.20;99.90;;;;;;5095002;28;20050;-76
2024/01/18 04:29:39;;;;;;;11.73;5.73;;;3.10;99.90;;;;;;5112885;28;20080;-77
2024/01/18 04:32:05;;;;;;;9.90;6.40;;;3.10;99.90;;;;;;5095208;28;20367;-76
2024/01/18 04:34:31;;;;;;;9.50;5.63;;;3.10;99.90;;;;;;5112799;28;20028;-81
2024/01/18 04:36:57;;;;;;;8.30;5.20;;;3.00;99.90;;;;;;5095039;28;20456;-77
2024/01/18 04:39:22;;;;;;;8.17;5.07;;;3.00;99.90;;;;;;5113332;28;20030;-76
2024/01/18 04:41:48;;;;;;;8.17;5.23;;;3.00;99.90;;;;;;5094080;28;20130;-77
2024/01/18 04:44:13;;;;;;;9.30;5.63;;;3.00;99.90;;;;;;5113196;28;20441;-76
2024/01/18 04:46:39;;;;;;;8.43;5.13;;;3.00;99.90;;;;;;5112803;28;20418;-77
2024/01/18 04:49:05;;;;;;;6.83;4.83;;;3.00;99.90;;;;;;5095077;28;20024;-77
2024/01/18 04:51:31;;;;;;;8.00;4.80;;;3.00;99.90;;;;;;5094975;28;20156;-76
2024/01/18 04:53:56;;;;;;;9.90;5.10;;;2.90;99.90;;;;;;5095043;28;20020;-77
2024/01/18 04:56:22;;;;;;;8.27;4.50;;;2.90;99.90;;;;;;5094924;28;20026;-77
2024/01/18 04:58:48;;;;;;;7.87;5.20;;;2.90;99.90;;;;;;5094524;28;20104;-79
2024/01/18 05:01:13;;;;;;;10.23;5.13;;;2.90;99.90;;;;;;5113076;28;20019;-76
2024/01/18 05:03:39;;;;;;;8.40;4.90;;;2.90;99.90;;;;;;5094414;28;20020;-77
2024/01/18 05:06:05;;;;;;;9.30;5.03;;;2.90;99.90;;;;;;5112978;28;20024;-77
2024/01/18 05:08:31;;;;;;;8.47;5.13;;;2.80;99.90;;;;;;5095039;28;20452;-77
2024/01/18 05:10:56;;;;;;;8.73;5.60;;;2.80;99.90;;;;;;5094065;28;20024;-78
2024/01/18 05:13:22;;;;;;;9.93;6.23;;;2.80;99.90;;;;;;5113013;28;20081;-77
2024/01/18 05:15:48;;;;;;;11.20;6.40;;;2.80;99.90;;;;;;5112543;28;20020;-77
2024/01/18 05:18:14;;;;;;;10.93;6.23;;;2.80;99.90;;;;;;5113084;28;20022;-77
2024/01/18 05:20:39;;;;;;;10.67;6.20;;;2.80;99.90;;;;;;5094454;28;20076;-78
2024/01/18 05:23:06;;;;;;;12.37;7.17;;;2.80;99.90;;;;;;5097370;28;20402;-78
2024/01/18 05:25:32;;;;;;;12.93;6.53;;;2.80;99.90;;;;;;5098621;28;20031;-77
2024/01/18 05:27:58;;;;;;;9.73;6.13;;;2.80;99.90;;;;;;5116408;28;20026;-77
2024/01/18 05:30:24;;;;;;;10.13;6.73;;;2.80;99.90;;;;;;5115577;28;20130;-77
2024/01/18 05:32:50;;;;;;;12.77;7.03;;;2.70;99.90;;;;;;5098115;28;20460;-78
2024/01/18 05:35:16;;;;;;;11.10;6.30;;;2.80;99.90;;;;;;5097986;28;20046;-77
2024/01/18 05:37:41;;;;;;;14.33;6.33;;;2.80;99.90;;;;;;5097523;28;20023;-77
2024/01/18 05:40:08;;;;;;;11.30;6.67;;;2.70;99.90;;;;;;5097911;28;20024;-77
2024/01/18 05:42:34;;;;;;;11.37;5.83;;;2.70;99.90;;;;;;5097462;28;20091;-77
2024/01/18 05:44:59;;;;;;;8.67;4.77;;;2.70;99.90;;;;;;5116320;28;20046;-77
2024/01/18 05:47:25;;;;;;;8.80;5.13;;;2.70;99.90;;;;;;5097979;28;20115;-77
2024/01/18 05:49:51;;;;;;;10.10;5.27;;;2.70;99.90;;;;;;5097558;28;20035;-76
2024/01/18 05:52:16;;;;;;;8.33;4.60;;;2.70;99.90;;;;;;5116487;28;20016;-77
2024/01/18 05:54:42;;;;;;;6.97;4.70;;;2.70;99.90;;;;;;5097561;28;20500;-76
2024/01/18 05:57:08;;;;;;;8.93;4.90;;;2.70;99.90;;;;;;5115645;28;20051;-77
2024/01/18 05:59:34;;;;;;;8.90;4.70;;;2.60;99.90;;;;;;5097786;28;20456;-77
2024/01/18 06:01:59;;;;;;;7.53;4.60;;;2.60;99.90;;;;;;5115377;28;20467;-76
2024/01/18 06:04:25;;;;;;;8.00;4.40;;;2.60;99.90;;;;;;5097564;28;20055;-76
2024/01/18 06:06:52;;;;;;;7.77;4.40;;;2.70;99.90;;;;;;5097130;28;20024;-77
2024/01/18 06:09:18;;;;;;;9.20;4.43;;;2.60;99.90;;;;;;5097238;28;20028;-77
2024/01/18 06:11:44;;;;;;;10.00;4.50;;;2.60;99.90;;;;;;5115621;28;20022;-77
2024/01/18 06:14:11;;;;;;;9.07;4.30;;;2.60;99.90;;;;;;5115349;28;20069;-77
2024/01/18 06:16:36;;;;;;;7.17;4.80;;;2.60;99.90;;;;;;5097012;28;20448;-86
2024/01/18 06:19:02;;;;;;;9.60;4.70;;;2.50;99.90;;;;;;5097163;28;20023;-76
2024/01/18 06:21:28;;;;;;;7.40;4.87;;;2.40;99.90;;;;;;5097476;28;20020;-76
2024/01/18 06:23:53;;;;;;;9.37;5.20;;;2.50;99.90;;;;;;5096515;28;20019;-76
2024/01/18 06:26:19;;;;;;;10.67;5.47;;;2.50;99.90;;;;;;5096897;28;20346;-77
2024/01/18 06:28:45;;;;;;;8.57;4.93;;;2.50;99.90;;;;;;5114878;28;20156;-77
2024/01/18 06:31:10;;;;;;;8.90;4.90;;;2.60;99.90;;;;;;5097016;28;20035;-76
2024/01/18 06:33:36;;;;;;;8.80;4.80;;;2.60;99.90;;;;;;5114382;28;20027;-77
2024/01/18 06:36:02;;;;;;;9.60;5.60;;;2.50;99.90;;;;;;5114697;28;20020;-77
2024/01/18 06:38:28;;;;;;;10.03;5.73;;;2.50;99.90;;;;;;5097124;28;20029;-76
2024/01/18 06:40:58;;;;;;;10.67;5.40;;;2.50;99.90;;;;;;5114745;28;20023;-77
2024/01/18 06:43:25;;;;;;;12.17;6.03;;;2.50;99.90;;;;;;5114792;28;20487;-77
2024/01/18 06:45:54;;;;;;;9.70;5.77;;;2.50;99.90;;;;;;5096162;28;20027;-76
2024/01/18 06:48:23;;;;;;;10.53;6.00;;;2.40;99.90;;;;;;5096621;28;20020;-76
2024/01/18 06:50:50;;;;;;;8.23;5.70;;;2.50;99.90;;;;;;5096081;28;20401;-77
2024/01/18 06:53:16;;;;;;;12.10;6.10;;;2.50;99.90;;;;;;5096367;28;20076;-76
2024/01/18 06:55:42;;;;;;;10.33;6.10;;;2.50;99.90;;;;;;5096326;28;20023;-83
2024/01/18 06:58:07;;;;;;;8.60;5.33;;;2.40;99.90;;;;;;5115029;28;20058;-76
2024/01/18 07:00:39;;;;;;;8.93;5.30;;;2.50;99.90;;;;;;5114797;28;20032;-75
2024/01/18 07:03:07;;;;;;;10.07;5.47;;;2.50;99.90;;;;;;5096542;28;20028;-76
2024/01/18 07:05:33;;;;;;;9.03;5.20;;;2.50;99.90;;;;;;5114601;28;20030;-76
2024/01/18 07:07:58;;;;;;;9.63;5.87;;;2.50;99.90;;;;;;5114369;28;20214;-76
2024/01/18 07:10:24;;;;;;;9.53;5.20;;;2.50;99.90;;;;;;5096307;28;20030;-75
2024/01/18 07:12:49;;;;;;;7.87;4.83;;;2.40;99.90;;;;;;5113545;28;20452;-75
2024/01/18 07:15:15;;;;;;;9.47;5.27;;;2.40;99.90;;;;;;5114486;28;20110;-75
2024/01/18 07:17:41;;;;;;;11.33;5.30;;;2.40;99.90;;;;;;5095650;28;20119;-78
2024/01/18 07:20:08;;;;;;;9.60;5.57;;;2.40;99.90;;;;;;5096352;28;20020;-75
2024/01/18 07:22:33;;;;;;;9.97;5.87;;;2.40;99.90;;;;;;5114636;28;20110;-75
2024/01/18 07:24:59;;;;;;;11.03;6.00;;;2.40;99.90;;;;;;5114007;28;20047;-75
2024/01/18 07:27:24;;;;;;;10.77;6.47;;;2.40;99.90;;;;;;5096122;28;20517;-76
2024/01/18 07:29:50;;;;;;;12.80;7.40;;;2.40;99.90;;;;;;5095484;28;20073;-76
2024/01/18 07:32:17;;;;;;;14.60;7.90;;;2.40;99.90;;;;;;5095510;28;20016;-75
2024/01/18 07:34:42;;;;;;;16.37;8.17;;;2.40;99.90;;;;;;5095298;28;20038;-76
2024/01/18 07:37:12;;;;;;;15.20;7.97;;;2.40;99.90;;;;;;5095644;28;20441;-76
2024/01/18 07:39:37;;;;;;;15.17;7.40;;;2.40;99.90;;;;;;5095741;28;20019;-75
2024/01/18 07:42:03;;;;;;;15.67;8.37;;;2.40;99.90;;;;;;5113416;28;20058;-75
2024/01/18 07:44:29;;;;;;;16.40;8.03;;;2.40;99.90;;;;;;5113712;28;20356;-75
2024/01/18 07:46:54;;;;;;;13.37;7.30;;;2.40;99.90;;;;;;5095163;28;20016;-75
2024/01/18 07:49:23;;;;;;;11.90;7.20;;;2.40;99.90;;;;;;5095570;28;20118;-76
2024/01/18 07:51:49;;;;;;;11.50;6.60;;;2.30;99.90;;;;;;5094767;28;20114;-75
2024/01/18 07:54:15;;;;;;;11.10;6.20;;;2.30;99.90;;;;;;5113757;28;20020;-76
2024/01/18 07:56:41;;;;;;;9.87;5.90;;;2.30;99.90;;;;;;5095293;28;20031;-75
2024/01/18 07:59:07;;;;;;;10.77;6.20;;;2.30;99.90;;;;;;5095118;28;20061;-75
2024/01/18 08:01:33;;;;;;;9.17;5.40;;;2.30;99.90;;;;;;5113623;28;20046;-75
2024/01/18 08:03:59;;;;;;;11.83;6.07;;;2.30;99.90;;;;;;5094979;28;20024;-76
2024/01/18 08:06:25;;;;;;;10.10;5.50;;;2.30;99.90;;;;;;5113532;28;20136;-75
2024/01/18 08:08:50;;;;;;;9.37;5.50;;;2.30;99.90;;;;;;5095013;28;20038;-76
2024/01/18 08:11:16;;;;;;;8.10;4.50;;;2.30;99.90;;;;;;5113415;28;20032;-75
2024/01/18 08:13:42;;;;;;;8.43;4.70;;;2.20;99.90;;;;;;5113526;28;20023;-75
2024/01/18 08:16:08;;;;;;;9.07;5.30;;;2.20;99.90;;;;;;5094794;28;20023;-75
2024/01/18 08:18:35;;;;;;;8.10;4.90;;;2.20;99.90;;;;;;5113514;28;20019;-75
2024/01/18 08:21:00;;;;;;;8.10;5.00;;;2.20;99.90;;;;;;5094845;28;20118;-76
2024/01/18 08:23:26;;;;;;;8.37;5.07;;;2.30;99.90;;;;;;5095294;28;20115;-76
2024/01/18 08:25:52;;;;;;;8.10;4.97;;;2.20;99.90;;;;;;5094796;28;20096;-76
2024/01/18 08:28:18;;;;;;;9.57;5.70;;;2.30;99.90;;;;;;5094881;28;20027;-76
2024/01/18 08:30:47;;;;;;;7.90;5.10;;;2.30;99.90;;;;;;5095069;28;20068;-76
2024/01/18 08:33:12;;;;;;;7.83;4.63;;;2.20;99.90;;;;;;5095090;28;20028;-75
2024/01/18 08:35:38;;;;;;;8.57;5.30;;;2.20;99.90;;;;;;5095097;28;20027;-75
2024/01/18 08:38:04;;;;;;;9.03;5.17;;;2.20;99.90;;;;;;5094520;28;20023;-76
2024/01/18 08:40:30;;;;;;;8.13;4.63;;;2.20;99.90;;;;;;5094970;28;20035;-76
2024/01/18 08:42:56;;;;;;;9.83;5.27;;;2.10;99.90;;;;;;5094485;28;20040;-76
2024/01/18 08:45:23;;;;;;;7.97;4.53;;;2.10;99.90;;;;;;5095020;28;20069;-75
2024/01/18 08:47:48;;;;;;;10.60;5.43;;;2.10;99.90;;;;;;5094553;28;20019;-76
2024/01/18 08:50:15;;;;;;;8.87;4.93;;;2.10;99.90;;;;;;5094955;28;20034;-76
2024/01/18 08:52:41;;;;;;;8.87;5.17;;;2.10;99.90;;;;;;5095129;28;20471;-76
2024/01/18 08:55:07;;;;;;;9.03;4.80;;;2.00;99.90;;;;;;5094426;28;20020;-76
2024/01/18 08:57:32;;;;;;;9.87;5.53;;;2.00;99.90;;;;;;5097441;28;20076;-76
2024/01/18 08:59:58;;;;;;;8.80;4.63;;;2.10;99.90;;;;;;5098355;28;20035;-76
2024/01/18 09:02:23;;;;;;;10.00;4.90;;;2.00;99.90;;;;;;5098792;28;20448;-76
2024/01/18 09:04:50;;;;;;;7.60;4.23;;;2.00;99.90;;;;;;5098266;28;20107;-75
2024/01/18 09:07:15;;;;;;;7.20;4.33;;;2.10;99.90;;;;;;5116968;28;20051;-75
2024/01/18 09:09:41;;;;;;;6.50;4.07;;;2.00;99.90;;;;;;5116361;28;20073;-75
2024/01/18 09:12:07;;;;;;;7.10;4.37;;;2.00;99.90;;;;;;5098231;28;20023;-76
2024/01/18 09:14:33;;;;;;;5.80;3.90;;;2.00;99.90;;;;;;5098581;28;20027;-76
2024/01/18 09:16:59;;;;;;;6.77;4.20;;;2.00;99.90;;;;;;5098116;28;20024;-75
2024/01/18 09:19:25;;;;;;;5.73;3.70;;;2.00;99.90;;;;;;5098436;28;20027;-75
2024/01/18 09:21:50;;;;;;;5.97;3.77;;;1.90;99.90;;;;;;5116174;28;20051;-76
2024/01/18 09:24:16;;;;;;;4.43;3.20;;;1.90;99.90;;;;;;5098551;28;20110;-75
2024/01/18 09:26:42;;;;;;;4.20;2.90;;;1.90;99.90;;;;;;5098180;28;20027;-75
2024/01/18 09:29:08;;;;;;;5.17;2.40;;;1.90;99.90;;;;;;5097554;28;20035;-75
2024/01/18 09:31:33;;;;;;;4.40;2.47;;;1.80;99.90;;;;;;5116580;28;20031;-75
2024/01/18 09:33:59;;;;;;;5.53;2.70;;;1.80;99.90;;;;;;5115674;28;20023;-75
2024/01/18 09:36:26;;;;;;;6.07;2.60;;;1.70;99.90;;;;;;5116511;28;20031;-75
2024/01/18 09:38:51;;;;;;;3.53;2.33;;;1.60;99.90;;;;;;5097462;28;20057;-75
2024/01/18 09:41:20;;;;;;;4.97;2.20;;;1.60;99.90;;;;;;5098194;28;20039;-75
2024/01/18 09:43:45;;;;;;;3.93;2.70;;;1.60;99.90;;;;;;5097836;28;20024;-75
2024/01/18 09:46:12;;;;;;;6.03;2.47;;;1.60;99.90;;;;;;5108036;28;20034;-78
2024/01/18 09:48:39;;;;;;;5.43;1.93;;;1.60;99.90;;;;;;5103910;28;20062;-79
2024/01/18 09:51:08;;;;;;;3.80;2.20;;;1.60;99.90;;;;;;5104492;28;20050;-78
2024/01/18 09:53:36;;;;;;;3.03;2.30;;;1.50;99.90;;;;;;5097772;28;20099;-78
2024/01/18 09:56:10;;;;;;;2.37;1.87;;;1.50;99.90;;;;;;5115497;28;20015;-78
2024/01/18 09:58:35;;;;;;;2.87;2.03;;;1.50;99.90;;;;;;5103851;28;20147;-79
2024/01/18 10:01:04;;;;;;;6.63;2.33;;;1.50;99.90;;;;;;5100327;28;20464;-78
2024/01/18 10:03:30;;;;;;;3.57;2.43;;;1.50;99.90;;;;;;5113487;28;20019;-76
2024/01/18 10:05:55;;;;;;;3.67;2.10;;;1.40;99.90;;;;;;5115924;28;20467;-80
2024/01/18 10:08:21;;;;;;;3.67;2.13;;;1.50;99.90;;;;;;5115185;28;20031;-77
2024/01/18 10:10:47;;;;;;;4.27;2.83;;;1.50;99.90;;;;;;5105581;28;20474;-81
2024/01/18 10:13:13;;;;;;;3.70;2.30;;;1.50;99.90;;;;;;5102817;28;20368;-79
2024/01/18 10:15:39;;;;;;;6.20;2.50;;;1.50;99.90;;;;;;5115797;28;20437;-78
2024/01/18 10:18:06;;;;;;;4.87;2.77;;;1.50;99.90;;;;;;5115267;28;20023;-77
2024/01/18 10:20:32;;;;;;;5.83;2.80;;;1.40;99.90;;;;;;5102851;28;20027;-78
2024/01/18 10:22:59;;;;;;;4.07;2.60;;;1.40;99.90;;;;;;5104947;28;20457;-78
2024/01/18 10:25:28;;;;;;;3.73;2.73;;;1.40;99.90;;;;;;5116113;28;20011;-78
2024/01/18 10:27:54;;;;;;;5.53;2.97;;;1.40;99.90;;;;;;5115234;28;20023;-78
2024/01/18 10:30:21;;;;;;;5.00;2.83;;;1.40;99.90;;;;;;5110703;28;20070;-78
2024/01/18 10:32:47;;;;;;;5.03;3.07;;;1.40;99.90;;;;;;5115601;28;20134;-79
2024/01/18 10:35:20;;;;;;;6.20;2.90;;;1.50;99.90;;;;;;5097963;28;20063;-76
2024/01/18 10:37:47;;;;;;;5.93;3.50;;;1.50;99.90;;;;;;5098957;28;20061;-76
2024/01/18 10:40:19;;;;;;;6.50;3.50;;;1.50;99.90;;;;;;5090735;28;20020;-78
2024/01/18 10:42:46;;;;;;;5.80;3.23;;;1.50;99.90;;;;;;5095003;28;20039;-78
2024/01/18 10:45:12;;;;;;;6.53;3.23;;;1.50;99.90;;;;;;5109373;28;20114;-78
2024/01/18 10:47:38;;;;;;;5.27;3.23;;;1.50;99.90;;;;;;5096717;28;20055;-78
2024/01/18 10:50:06;;;;;;;6.40;3.07;;;1.50;99.90;;;;;;5107505;28;20035;-78
2024/01/18 10:52:35;;;;;;;6.50;3.20;;;1.50;99.90;;;;;;5098304;28;20020;-77
2024/01/18 10:55:03;;;;;;;5.23;2.70;;;1.60;99.90;;;;;;5110964;28;20019;-77
2024/01/18 10:57:29;;;;;;;5.13;2.93;;;1.60;99.90;;;;;;5103492;28;20398;-80
2024/01/18 10:59:55;;;;;;;5.97;3.23;;;1.60;99.90;;;;;;5108129;28;20032;-77
2024/01/18 11:02:21;;;;;;;4.27;2.43;;;1.60;99.90;;;;;;5100131;28;20102;-78
2024/01/18 11:04:50;;;;;;;7.53;3.37;;;1.60;99.90;;;;;;5111670;28;20028;-80
2024/01/18 11:07:16;;;;;;;5.93;3.10;;;1.60;99.90;;;;;;5101722;28;20113;-77
2024/01/18 11:09:43;;;;;;;8.87;3.23;;;1.60;99.90;;;;;;5104313;28;20028;-79
2024/01/18 11:12:10;;;;;;;5.53;3.37;;;1.60;99.90;;;;;;5113738;28;20704;-77
2024/01/18 11:14:36;;;;;;;11.73;3.93;;;1.70;99.90;;;;;;5114472;28;20448;-77
2024/01/18 11:17:14;;;;;;;5.63;3.37;;;1.60;99.90;;;;;;5110017;28;20106;-76
2024/01/18 11:19:46;;;;;;;5.67;3.10;;;1.70;99.90;;;;;;5104280;28;20075;-77
2024/01/18 11:22:23;;;;;;;4.65;2.75;;;1.70;99.90;;;;;;5100339;28;20119;-77
2024/01/18 11:24:49;;;;;;;4.20;2.50;;;1.80;99.90;;;;;;5093718;28;20055;-77
2024/01/18 11:27:23;;;;;;;5.40;3.10;;;1.80;99.90;;;;;;5093682;28;20524;-77
2024/01/18 11:29:49;;;;;;;4.70;2.50;;;1.80;99.90;;;;;;5107449;28;20066;-76
2024/01/18 11:32:18;;;;;;;4.43;2.70;;;1.80;99.90;;;;;;5113981;28;20016;-77
2024/01/18 11:34:45;;;;;;;5.50;2.53;;;1.80;99.90;;;;;;5079739;28;20103;-78
2024/01/18 11:37:12;;;;;;;5.57;2.60;;;1.90;99.90;;;;;;5099653;28;20030;-78
2024/01/18 11:39:59;;;;;;;3.93;2.10;;;1.90;99.90;;;;;;5104880;28;20051;-77
2024/01/18 11:42:29;;;;;;;4.07;2.37;;;1.90;99.90;;;;;;5113917;28;20043;-77
2024/01/18 11:44:55;;;;;;;3.73;2.40;;;1.80;99.90;;;;;;5097156;28;20022;-77
2024/01/18 11:47:22;;;;;;;4.37;2.57;;;1.90;99.90;;;;;;5114108;28;20016;-77
2024/01/18 11:49:48;;;;;;;4.23;2.73;;;1.80;99.90;;;;;;5105318;28;20063;-77
2024/01/18 11:52:15;;;;;;;4.60;2.67;;;1.80;99.90;;;;;;5112701;28;20069;-79
2024/01/18 11:54:44;;;;;;;4.73;2.60;;;1.80;99.90;;;;;;5095648;28;20110;-77
2024/01/18 11:57:13;;;;;;;4.47;2.80;;;1.80;99.90;;;;;;5108361;28;20031;-77
2024/01/18 11:59:43;;;;;;;5.27;3.10;;;1.80;99.90;;;;;;5095833;28;20035;-77
2024/01/18 12:02:10;;;;;;;4.67;3.00;;;1.80;99.90;;;;;;5107559;28;20019;-77
2024/01/18 12:04:36;;;;;;;4.87;2.77;;;1.80;99.90;;;;;;5113450;28;20030;-77
2024/01/18 12:07:01;;;;;;;5.87;2.97;;;1.90;99.90;;;;;;5112603;28;20019;-77
2024/01/18 12:09:30;;;;;;;5.53;2.97;;;1.80;99.90;;;;;;5111344;28;20027;-79
2024/01/18 12:11:57;;;;;;;6.87;3.83;;;1.80;99.90;;;;;;5105978;28;20028;-77
2024/01/18 12:14:23;;;;;;;5.47;3.30;;;1.80;99.90;;;;;;5113165;28;20026;-77
2024/01/18 12:16:49;;;;;;;5.93;3.40;;;1.80;99.90;;;;;;5111794;28;20019;-79
2024/01/18 12:19:31;;;;;;;5.30;3.23;;;1.80;99.90;;;;;;5112636;28;20356;-76
2024/01/18 12:21:57;;;;;;;;;;;1.70;99.90;;;;;;5094429;28;20024;-76
2024/01/18 12:24:24;;;;;;;5.30;3.33;;;1.80;99.90;;;;;;5108488;28;20229;-77
2024/01/18 12:26:49;;;;;;;8.30;3.47;;;1.80;99.90;;;;;;5112742;28;20019;-75
2024/01/18 12:29:15;;;;;;;6.93;3.23;;;1.90;99.90;;;;;;5097987;28;20016;-76
2024/01/18 12:31:46;;;;;;;6.03;3.23;;;1.90;99.90;;;;;;5113030;28;20051;-76
2024/01/18 12:34:11;;;;;;;6.00;3.37;;;1.90;99.90;;;;;;5116430;28;20286;-79
2024/01/18 12:36:38;;;;;;;5.83;3.20;;;1.90;99.90;;;;;;5116882;28;20051;-76
2024/01/18 12:39:04;;;;;;;6.43;3.30;;;2.00;99.90;;;;;;5098406;28;20023;-76
2024/01/18 12:41:31;;;;;;;5.70;3.20;;;1.90;99.90;;;;;;5117094;28;20050;-76
2024/01/18 12:44:06;;;;;;;5.40;3.13;;;2.00;99.90;;;;;;5098680;28;20356;-76
2024/01/18 12:46:36;;;;;;;5.87;3.50;;;1.90;99.90;;;;;;5099287;28;20111;-76
2024/01/18 12:49:02;;;;;;;4.73;2.93;;;1.90;99.90;;;;;;5098463;28;20024;-76
2024/01/18 12:51:28;;;;;;;6.23;3.40;;;1.90;99.90;;;;;;5117403;28;20019;-75